New Windsor, Illinois
Current Conditions -  °F | °C
As of 1:52 PM on Thursday 30 Oct 2014 (Local Time) from KMLI Reporting Station
Overcast Overcast  
Wind Chill: 50°   Ceiling: 7000
Heat Index: 50°   Visibility: 10mi
Dew Point: 37°   Wind: 7mph
Humidity: 61%   Direction: 170°S
Pressure: 30.05"   Gusts: NA
Location:  41.2°N, 90.47°W
Report Text: KMLI 301852Z 17006KT 10SM OVC070 10/03 A3005 RMK AO2 SLP180 T01000028 $
Loading
Personal Weather Stations






























Interactive Weather Map
Tropical Storm Tracking
New forecast layout! Learn more

10-Day Weather Forecast

Advertisements
Track Severe Weather on mobile